Time;durP1;ratioP1;P1;durP2;ratioP2;P2;SDS_P1;SDS_P2;PMS_P1;PMS_P2;Temp;Humidity;BMP_temperature;BMP_pressure;BME280_temperature;BME280_humidity;BME280_pressure;Samples;Min_cycle;Max_cycle;Signal;HPM_P1;HPM_P2
2021/12/08 00:02:11;;;;;;;10.52;2.60;;;;;;;3.71;100.00;98962.25;4959230;28;20035;-80
2021/12/08 00:04:37;;;;;;;6.75;2.33;;;;;;;3.75;100.00;98977.25;4970973;28;20049;-81
2021/12/08 00:07:05;;;;;;;6.30;2.67;;;;;;;3.69;100.00;98964.22;4942518;29;20023;-80
2021/12/08 00:14:53;;;;;;;11.23;2.83;;;;;;;3.70;100.00;98954.25;4961489;29;20097;-80
2021/12/08 00:17:19;;;;;;;12.25;3.03;;;;;;;3.78;100.00;98949.06;4975048;28;20044;-80
2021/12/08 00:19:45;;;;;;;16.42;4.00;;;;;;;3.74;100.00;98953.88;4959596;29;20036;-81
2021/12/08 00:22:10;;;;;;;11.35;3.40;;;;;;;3.73;100.00;98960.28;4978596;28;20039;-80
2021/12/08 00:24:36;;;;;;;8.65;3.25;;;;;;;3.68;100.00;98939.00;4966840;29;20046;-80
2021/12/08 00:27:02;;;;;;;12.57;4.00;;;;;;;3.74;100.00;98953.88;4962630;28;20031;-80
2021/12/08 00:29:28;;;;;;;7.50;3.53;;;;;;;3.76;100.00;98951.06;4977546;28;20399;-80
2021/12/08 00:31:53;;;;;;;10.00;3.20;;;;;;;3.79;100.00;98946.25;4977180;28;20031;-80
2021/12/08 00:34:19;;;;;;;8.95;3.78;;;;;;;3.78;100.00;98949.94;4974350;28;20035;-80
2021/12/08 00:36:48;;;;;;;5.65;3.40;;;;;;;3.87;100.00;98942.91;4965287;28;20036;-80
2021/12/08 00:39:14;;;;;;;12.35;3.90;;;;;;;3.81;100.00;98938.84;4951085;29;20540;-80
2021/12/08 00:41:40;;;;;;;10.25;3.70;;;;;;;3.89;100.00;98946.34;4961560;28;20038;-79
2021/12/08 00:44:06;;;;;;;10.98;4.05;;;;;;;3.99;100.00;98951.88;4976210;28;20039;-80
2021/12/08 00:46:32;;;;;;;13.90;4.22;;;;;;;3.96;100.00;98960.25;4963462;28;20020;-80
2021/12/08 00:48:58;;;;;;;9.38;5.22;;;;;;;3.98;100.00;98952.84;4977041;28;20457;-80
2021/12/08 00:51:24;;;;;;;7.57;3.85;;;;;;;4.11;100.00;98934.59;4962803;28;20074;-80
2021/12/08 00:53:50;;;;;;;9.77;3.92;;;;;;;4.11;100.00;98944.56;4973802;28;20047;-80
2021/12/08 00:56:16;;;;;;;9.40;3.70;;;;;;;4.15;100.00;98951.44;4959056;29;20103;-80
2021/12/08 00:58:42;;;;;;;5.90;3.25;;;;;;;4.28;100.00;98959.41;4970843;28;20020;-81
2021/12/08 01:01:08;;;;;;;7.75;3.25;;;;;;;4.32;100.00;98966.28;4977386;28;20039;-81
2021/12/08 01:03:36;;;;;;;8.05;2.90;;;;;;;4.38;100.00;98955.78;4938715;29;20050;-80
2021/12/08 01:06:02;;;;;;;7.72;3.33;;;;;;;4.47;100.00;98954.16;4961351;28;20035;-81
2021/12/08 01:08:29;;;;;;;5.30;2.50;;;;;;;4.55;100.00;98956.22;4961032;28;20060;-81
2021/12/08 01:10:59;;;;;;;6.38;2.70;;;;;;;4.55;100.00;98954.34;4960429;28;20031;-81
2021/12/08 01:13:26;;;;;;;7.28;2.83;;;;;;;4.68;100.00;98959.59;4960000;28;20050;-80
2021/12/08 01:15:55;;;;;;;3.60;2.25;;;;;;;4.74;100.00;98952.81;4976894;28;20122;-80
2021/12/08 01:18:21;;;;;;;5.13;2.28;;;;;;;4.84;100.00;98972.72;4959955;28;20054;-80
2021/12/08 01:20:49;;;;;;;6.38;2.17;;;;;;;4.90;100.00;98974.00;4964240;28;20027;-80
2021/12/08 01:23:16;;;;;;;3.65;2.53;;;;;;;5.00;100.00;98963.22;4958315;28;20042;-80
2021/12/08 01:25:42;;;;;;;4.13;1.70;;;;;;;5.11;100.00;98961.31;4967673;28;20371;-80
2021/12/08 01:28:08;;;;;;;3.90;2.22;;;;;;;5.22;100.00;98979.38;4971326;28;20515;-81
2021/12/08 01:30:34;;;;;;;3.47;1.90;;;;;;;5.11;100.00;98971.31;4961491;28;20066;-80
2021/12/08 01:33:00;;;;;;;6.90;2.03;;;;;;;5.07;100.00;98968.00;4974047;28;20039;-80
2021/12/08 01:35:26;;;;;;;12.57;2.33;;;;;;;5.24;100.00;98979.22;4974275;28;20024;-80
2021/12/08 01:37:51;;;;;;;3.72;1.73;;;;;;;5.31;100.00;98975.84;4958360;28;20031;-81
2021/12/08 01:40:17;;;;;;;3.38;2.10;;;;;;;5.19;100.00;98978.78;4969983;29;20114;-80
2021/12/08 01:42:47;;;;;;;7.57;2.05;;;;;;;5.30;100.00;98979.56;4977989;28;20043;-80
2021/12/08 01:48:03;;;;;;;7.85;2.00;;;;;;;5.29;100.00;98985.13;4959724;29;20455;-80
2021/12/08 01:50:29;;;;;;;5.35;2.28;;;;;;;5.38;100.00;98992.47;4961983;29;20479;-80
2021/12/08 01:52:55;;;;;;;7.50;2.17;;;;;;;5.38;100.00;98994.28;4970779;28;20045;-80
2021/12/08 01:55:20;;;;;;;2.53;1.75;;;;;;;5.33;100.00;98998.28;4962188;28;20505;-81
2021/12/08 01:57:47;;;;;;;2.40;1.95;;;;;;;5.39;100.00;98996.03;4961107;29;20039;-81
2021/12/08 02:00:35;;;;;;;9.50;2.03;;;;;;;5.41;100.00;99005.75;4962280;29;20486;-81
2021/12/08 02:03:01;;;;;;;7.90;2.47;;;;;;;5.42;100.00;98999.31;4960877;29;20537;-81
2021/12/08 02:05:27;;;;;;;4.70;1.45;;;;;;;5.41;100.00;98994.91;4958093;28;20028;-81
2021/12/08 02:07:54;;;;;;;13.38;1.80;;;;;;;5.44;100.00;99004.63;4948907;28;20035;-81
2021/12/08 02:10:19;;;;;;;6.68;2.17;;;;;;;5.42;100.00;99007.47;4962148;28;20047;-80
2021/12/08 02:12:46;;;;;;;4.93;2.03;;;;;;;5.47;100.00;99009.78;4962722;28;20467;-81
2021/12/08 02:15:14;;;;;;;5.30;1.73;;;;;;;5.47;100.00;99016.06;4949262;29;20031;-81
2021/12/08 02:17:40;;;;;;;6.20;1.95;;;;;;;5.48;100.00;99022.38;4965637;28;20046;-81
2021/12/08 02:20:10;;;;;;;8.07;1.73;;;;;;;5.38;100.00;99002.44;4962745;29;20035;-81
2021/12/08 02:22:36;;;;;;;5.38;1.90;;;;;;;5.47;100.00;99017.91;4961495;28;20070;-81
2021/12/08 02:25:05;;;;;;;6.00;1.70;;;;;;;5.31;100.00;98997.56;4962160;28;20118;-80
2021/12/08 02:27:34;;;;;;;3.97;1.85;;;;;;;5.50;100.00;99031.22;4961164;29;20027;-80
2021/12/08 02:30:12;;;;;;;1.30;1.20;;;;;;;5.34;100.00;99010.00;4945099;29;20039;-80
2021/12/08 02:48:51;;;;;;;6.72;1.60;;;;;;;5.68;100.00;99059.47;4957787;28;20699;-80
2021/12/08 02:51:19;;;;;;;11.27;1.90;;;;;;;5.75;100.00;99061.66;4965408;28;20043;-80
2021/12/08 02:53:45;;;;;;;9.00;1.90;;;;;;;5.68;100.00;99050.47;4980477;28;20443;-81
2021/12/08 02:56:10;;;;;;;5.10;1.60;;;;;;;5.85;100.00;99051.69;4975025;28;20151;-80
2021/12/08 02:58:35;;;;;;;10.23;1.60;;;;;;;5.89;100.00;99059.41;4962533;28;20114;-80
2021/12/08 03:01:04;;;;;;;9.20;1.90;;;;;;;5.93;100.00;99056.44;4958280;29;20027;-80
2021/12/08 03:03:29;;;;;;;5.30;1.23;;;;;;;5.88;100.00;99060.41;4962858;28;20376;-81
2021/12/08 03:05:55;;;;;;;10.40;1.40;;;;;;;5.72;100.00;99046.47;4946128;29;20030;-80
2021/12/08 03:08:21;;;;;;;11.50;1.70;;;;;;;5.76;100.00;99053.38;4962341;29;20543;-80
2021/12/08 03:10:50;;;;;;;7.32;1.75;;;;;;;5.82;100.00;99057.38;4950530;28;20423;-81
2021/12/08 03:13:15;;;;;;;9.95;1.55;;;;;;;5.79;100.00;99055.81;4940327;29;20467;-81
2021/12/08 03:15:41;;;;;;;7.10;1.40;;;;;;;5.81;100.00;99051.09;4961233;29;20042;-81
2021/12/08 03:18:08;;;;;;;15.48;1.40;;;;;;;5.83;100.00;99042.81;4957409;29;20035;-81
2021/12/08 03:20:41;;;;;;;6.03;1.30;;;;;;;5.89;100.00;99055.84;4959972;29;20059;-81
2021/12/08 03:23:10;;;;;;;3.03;1.10;;;;;;;5.85;100.00;99068.84;4944818;29;20035;-81
2021/12/08 03:25:40;;;;;;;7.00;1.38;;;;;;;5.80;100.00;99064.81;4960490;28;20035;-81
2021/12/08 03:28:14;;;;;;;5.55;1.15;;;;;;;5.73;100.00;99063.66;4977392;28;20031;-81
2021/12/08 03:30:53;;;;;;;12.15;1.38;;;;;;;5.68;100.00;99059.47;4958310;28;20049;-81
2021/12/08 03:33:19;;;;;;;3.25;1.00;;;;;;;5.66;100.00;99068.75;4972312;28;20031;-80
2021/12/08 03:35:44;;;;;;;9.73;1.38;;;;;;;5.66;100.00;99061.47;4973932;28;20383;-80
2021/12/08 03:38:10;;;;;;;7.88;1.55;;;;;;;5.62;100.00;99064.56;4969095;28;20039;-81
2021/12/08 03:40:35;;;;;;;10.50;1.40;;;;;;;5.63;100.00;99071.72;4942185;29;20059;-81
2021/12/08 03:43:01;;;;;;;7.22;1.40;;;;;;;5.55;100.00;99080.53;4961156;29;20040;-81
2021/12/08 03:45:35;;;;;;;9.82;1.45;;;;;;;5.53;100.00;99077.09;4976553;28;20023;-80
2021/12/08 03:48:05;;;;;;;11.43;1.50;;;;;;;5.38;100.00;99057.59;4964503;28;20449;-80
2021/12/08 03:50:34;;;;;;;9.50;1.70;;;;;;;5.38;100.00;99073.88;4964640;28;20023;-80
2021/12/08 03:52:59;;;;;;;11.30;1.27;;;;;;;5.41;100.00;99078.16;4964423;28;20570;-80
2021/12/08 03:55:25;;;;;;;10.73;1.40;;;;;;;5.41;100.00;99078.16;4965691;28;20125;-80
2021/12/08 03:57:51;;;;;;;19.50;1.98;;;;;;;5.46;100.00;99097.63;4947672;29;20027;-82
2021/12/08 04:00:21;;;;;;;9.80;1.40;;;;;;;5.48;100.00;99098.38;4965314;28;20152;-79
2021/12/08 04:02:48;;;;;;;13.88;1.73;;;;;;;5.55;100.00;99104.13;4968397;28;20034;-82
2021/12/08 04:05:19;;;;;;;22.10;2.22;;;;;;;5.57;100.00;99104.84;4964879;28;20031;-79
2021/12/08 04:07:47;;;;;;;16.85;1.75;;;;;;;5.52;100.00;99095.22;4986418;28;20023;-80
2021/12/08 04:10:19;;;;;;;6.68;1.60;;;;;;;5.52;100.00;99097.94;4959610;28;20129;-80
2021/12/08 04:12:52;;;;;;;9.13;1.20;;;;;;;5.52;100.00;99107.94;4976148;28;20460;-80
2021/12/08 04:15:19;;;;;;;14.93;1.63;;;;;;;5.53;100.00;99104.25;4965782;28;20066;-80
2021/12/08 04:17:49;;;;;;;9.38;1.40;;;;;;;5.46;100.00;99105.75;4960636;28;20074;-80
2021/12/08 04:20:27;;;;;;;5.80;1.40;;;;;;;5.38;100.00;99103.72;4963220;28;20042;-82
2021/12/08 04:22:56;;;;;;;10.13;1.20;;;;;;;5.37;100.00;99101.13;4964891;28;20055;-81
2021/12/08 04:25:30;;;;;;;5.95;1.00;;;;;;;5.39;100.00;99099.16;4961494;28;20513;-80
2021/12/08 04:27:58;;;;;;;8.57;0.90;;;;;;;5.39;100.00;99107.28;4970017;28;20514;-80
2021/12/08 04:30:37;;;;;;;4.80;0.93;;;;;;;5.38;100.00;99114.56;4968325;28;20114;-80
2021/12/08 04:33:03;;;;;;;8.27;0.93;;;;;;;5.23;100.00;99105.91;4948833;29;20511;-79
2021/12/08 04:35:29;;;;;;;6.10;1.15;;;;;;;5.22;100.00;99120.44;4974844;28;20082;-79
2021/12/08 04:37:58;;;;;;;7.53;1.00;;;;;;;5.21;100.00;99112.44;4981455;28;20093;-80
2021/12/08 04:40:41;;;;;;;10.02;1.10;;;;;;;5.13;100.00;99104.94;4949884;28;20052;-80
2021/12/08 04:43:27;;;;;;;4.68;0.80;;;;;;;5.26;100.00;99123.75;4969175;28;20089;-80
2021/12/08 04:46:15;;;;;;;9.13;1.10;;;;;;;5.14;100.00;99122.94;4955025;28;20030;-80
2021/12/08 04:51:56;;;;;;;;;;;;;;;5.05;100.00;99129.13;4968131;29;20118;-79
2021/12/08 05:02:50;;;;;;;11.20;1.15;;;;;;;4.78;100.00;99134.03;4965278;29;20443;-80
2021/12/08 05:07:54;;;;;;;7.32;1.10;;;;;;;4.70;100.00;99127.53;4960782;29;20035;-80
2021/12/08 05:10:34;;;;;;;8.85;0.88;;;;;;;4.81;100.00;99130.22;4960976;28;20039;-80
2021/12/08 05:13:02;;;;;;;9.23;0.90;;;;;;;4.81;100.00;99151.06;4944677;29;20067;-79
2021/12/08 05:15:36;;;;;;;10.93;1.63;;;;;;;4.81;100.00;99151.91;4958945;29;20047;-79
2021/12/08 05:18:17;;;;;;;14.88;1.63;;;;;;;4.79;100.00;99146.63;4959577;29;20038;-79
2021/12/08 05:20:50;;;;;;;7.97;0.80;;;;;;;4.66;100.00;99143.19;4961839;28;20046;-79
2021/12/08 05:23:21;;;;;;;;;;;;;;;4.66;100.00;99147.78;4957659;29;20031;-80
2021/12/08 05:25:47;;;;;;;7.25;0.90;;;;;;;4.46;100.00;99136.72;4959874;29;19925;-80
2021/12/08 05:28:18;;;;;;;8.38;0.98;;;;;;;4.52;100.00;99138.91;4975248;28;20032;-79
2021/12/08 05:31:15;;;;;;;7.78;0.95;;;;;;;4.51;100.00;99147.16;4952808;29;20042;-79
2021/12/08 05:33:43;;;;;;;9.60;1.35;;;;;;;4.54;100.00;99142.38;4942264;29;20043;-79
2021/12/08 05:36:10;;;;;;;12.38;1.50;;;;;;;4.50;100.00;99148.16;4961012;28;20043;-80
2021/12/08 05:38:37;;;;;;;8.75;1.98;;;;;;;4.50;100.00;99159.00;4955124;29;20040;-79
2021/12/08 05:41:14;;;;;;;9.02;1.33;;;;;;;4.58;100.00;99159.22;4965103;28;20042;-81
2021/12/08 05:43:41;;;;;;;10.55;1.10;;;;;;;4.51;100.00;99160.69;4960208;28;20179;-78
2021/12/08 05:46:07;;;;;;;14.27;1.38;;;;;;;4.50;100.00;99162.56;4960610;29;20054;-80
2021/12/08 05:48:35;;;;;;;13.10;1.25;;;;;;;4.51;100.00;99177.84;4974535;28;20051;-80
2021/12/08 05:51:08;;;;;;;12.07;1.00;;;;;;;4.46;100.00;99177.34;4971414;28;20141;-79
2021/12/08 05:53:35;;;;;;;14.02;1.75;;;;;;;4.46;100.00;99179.19;4961295;29;20058;-80
2021/12/08 05:56:04;;;;;;;11.02;1.35;;;;;;;4.47;100.00;99184.47;4975479;28;20498;-79
2021/12/08 05:58:30;;;;;;;13.27;1.70;;;;;;;4.59;100.00;99194.34;4974178;28;20091;-80
2021/12/08 06:01:05;;;;;;;12.57;1.80;;;;;;;4.62;100.00;99190.50;4941841;29;20523;-80
2021/12/08 06:03:31;;;;;;;14.65;1.60;;;;;;;4.59;100.00;99204.28;4951413;28;20039;-79
2021/12/08 06:05:57;;;;;;;13.02;1.45;;;;;;;4.56;100.00;99200.00;4972904;28;20043;-79
2021/12/08 06:08:23;;;;;;;9.75;1.75;;;;;;;4.52;100.00;99193.09;4958188;28;20050;-79
2021/12/08 06:10:49;;;;;;;14.18;1.70;;;;;;;4.47;100.00;99203.44;4941941;29;20398;-80
2021/12/08 06:13:16;;;;;;;19.50;1.40;;;;;;;4.39;100.00;99189.66;4974944;28;20027;-79
2021/12/08 06:15:45;;;;;;;16.40;1.70;;;;;;;4.35;100.00;99199.88;4955687;29;20488;-78
2021/12/08 06:18:11;;;;;;;10.80;1.42;;;;;;;4.38;100.00;99215.06;4970147;28;20045;-79
2021/12/08 06:20:37;;;;;;;5.20;1.17;;;;;;;4.41;100.00;99217.47;4955962;28;20054;-79
2021/12/08 06:23:06;;;;;;;8.85;1.20;;;;;;;4.42;100.00;99230.06;4956919;28;20427;-78
2021/12/08 06:25:33;;;;;;;8.25;1.48;;;;;;;4.29;100.00;99223.91;4955067;28;20589;-78
2021/12/08 06:27:59;;;;;;;14.77;2.03;;;;;;;4.23;100.00;99242.38;4947818;28;20043;-77
2021/12/08 06:30:28;;;;;;;7.85;1.50;;;;;;;4.21;100.00;99232.63;4957055;28;20097;-78
2021/12/08 06:32:54;;;;;;;7.57;0.98;;;;;;;4.35;100.00;99240.53;4968262;28;20459;-78
2021/12/08 06:35:33;;;;;;;9.80;1.67;;;;;;;4.38;100.00;99231.31;4966103;28;20039;-77
2021/12/08 06:37:59;;;;;;;14.68;1.52;;;;;;;4.48;100.00;99226.00;4957452;28;20486;-78
2021/12/08 06:40:33;;;;;;;14.63;1.30;;;;;;;4.44;100.00;99219.09;4944515;29;20031;-78
2021/12/08 06:43:03;;;;;;;5.78;0.95;;;;;;;4.50;100.00;99224.03;4972912;28;20059;-79
2021/12/08 06:45:33;;;;;;;8.23;1.10;;;;;;;4.50;100.00;99211.34;4956302;29;20031;-79
2021/12/08 06:48:01;;;;;;;12.38;1.55;;;;;;;4.51;100.00;99221.19;4959025;28;20031;-79
2021/12/08 06:50:36;;;;;;;9.80;1.42;;;;;;;4.45;100.00;99229.81;4957532;28;20090;-78
2021/12/08 06:53:02;;;;;;;17.05;3.10;;;;;;;4.43;100.00;99212.81;4956620;29;20046;-79
2021/12/08 06:55:39;;;;;;;13.02;1.13;;;;;;;4.32;100.00;99231.78;4968759;28;20495;-78
2021/12/08 06:58:12;;;;;;;8.65;1.23;;;;;;;4.42;100.00;99230.06;4962860;28;20515;-79
2021/12/08 07:00:57;;;;;;;;;;;;;;;4.39;100.00;99231.19;4956689;28;20039;-78
2021/12/08 07:03:46;;;;;;;13.57;1.55;;;;;;;4.41;100.00;99248.16;4960436;28;20286;-79
2021/12/08 07:06:43;;;;;;;9.95;1.40;;;;;;;4.34;100.00;99241.50;4952548;29;20050;-78
2021/12/08 07:09:21;;;;;;;6.72;1.45;;;;;;;4.34;100.00;99244.22;4955854;28;20443;-78
2021/12/08 07:11:49;;;;;;;11.40;1.50;;;;;;;4.37;100.00;99254.81;4950804;29;20086;-78
2021/12/08 07:14:15;;;;;;;18.73;1.70;;;;;;;4.30;100.00;99274.41;4965459;28;20483;-79
2021/12/08 07:16:46;;;;;;;12.57;1.40;;;;;;;4.27;100.00;99271.94;4961454;29;20027;-78
2021/12/08 07:19:29;;;;;;;15.40;1.35;;;;;;;4.28;100.00;99271.81;4974762;28;20047;-78
2021/12/08 07:21:57;;;;;;;20.55;1.63;;;;;;;4.25;100.00;99280.19;4960555;28;20097;-79
2021/12/08 07:24:28;;;;;;;13.05;1.67;;;;;;;4.20;100.00;99277.81;4961616;29;20035;-78
2021/12/08 07:26:58;;;;;;;12.32;1.30;;;;;;;4.21;100.00;99278.66;4958597;29;20027;-78
2021/12/08 07:29:27;;;;;;;18.70;1.98;;;;;;;4.16;100.00;99275.47;4975108;28;20073;-77
2021/12/08 07:31:58;;;;;;;10.38;1.45;;;;;;;4.27;100.00;99280.06;4950618;29;20055;-80
2021/12/08 07:34:25;;;;;;;7.28;1.02;;;;;;;4.34;100.00;99290.25;4960650;28;20059;-78
2021/12/08 07:36:59;;;;;;;14.05;1.48;;;;;;;4.23;100.00;99287.53;4962598;28;20436;-79
2021/12/08 07:39:32;;;;;;;12.20;2.08;;;;;;;4.26;100.00;99279.16;4961071;28;20467;-78
2021/12/08 07:42:09;;;;;;;8.60;1.40;;;;;;;4.23;100.00;99280.28;4960653;28;20463;-79
2021/12/08 07:44:35;;;;;;;5.97;1.35;;;;;;;4.26;100.00;99283.72;4961348;28;20090;-79
2021/12/08 07:47:06;;;;;;;5.13;1.08;;;;;;;4.24;100.00;99281.16;4974697;28;20063;-80
2021/12/08 07:49:40;;;;;;;16.75;1.58;;;;;;;4.15;100.00;99295.41;4956199;29;20530;-80
2021/12/08 07:52:16;;;;;;;13.27;1.45;;;;;;;4.20;100.00;99306.75;4950180;29;20039;-81
2021/12/08 07:54:44;;;;;;;14.30;1.73;;;;;;;4.20;100.00;99294.06;4961386;29;20035;-80
2021/12/08 07:57:16;;;;;;;6.68;1.48;;;;;;;4.18;100.00;99301.47;4964030;28;20495;-81
2021/12/08 07:59:46;;;;;;;24.48;1.83;;;;;;;4.14;100.00;99301.81;4961480;29;20038;-81
2021/12/08 08:02:12;;;;;;;9.88;1.50;;;;;;;4.21;100.00;99298.53;4943836;29;20114;-82
2021/12/08 08:04:41;;;;;;;11.82;1.38;;;;;;;4.33;100.00;99312.94;4946974;29;20113;-82
2021/12/08 08:07:09;;;;;;;11.73;1.40;;;;;;;4.39;100.00;99307.06;4961661;28;20035;-80
2021/12/08 08:09:40;;;;;;;9.25;1.00;;;;;;;4.41;100.00;99317.75;4958146;29;20456;-80
2021/12/08 08:12:11;;;;;;;15.10;1.55;;;;;;;4.42;100.00;99322.19;4970090;28;20048;-80
2021/12/08 08:14:41;;;;;;;11.90;1.23;;;;;;;4.41;100.00;99325.88;4976270;28;20074;-80
2021/12/08 08:17:14;;;;;;;7.13;1.30;;;;;;;4.44;100.00;99330.19;4956851;29;20035;-80
2021/12/08 08:19:44;;;;;;;;;;;;;;;4.50;100.00;99330.56;4978467;28;20059;-80
2021/12/08 08:22:16;;;;;;;7.57;1.30;;;;;;;4.47;100.00;99321.84;4960986;28;20001;-79
2021/12/08 08:24:42;;;;;;;10.60;1.85;;;;;;;4.67;100.00;99318.38;4942912;29;20477;-80
2021/12/08 08:27:10;;;;;;;11.93;1.35;;;;;;;4.55;100.00;99322.94;4960931;28;20046;-80
2021/12/08 08:29:37;;;;;;;14.95;1.48;;;;;;;4.47;100.00;99330.81;4965609;28;20031;-80
2021/12/08 08:32:16;;;;;;;15.02;2.90;;;;;;;4.50;100.00;99327.88;4958568;28;20043;-79
2021/12/08 08:34:44;;;;;;;15.57;1.77;;;;;;;4.55;100.00;99322.94;4951733;29;20031;-80
2021/12/08 08:37:12;;;;;;;10.63;1.40;;;;;;;4.62;100.00;99322.47;4957823;28;20082;-79
2021/12/08 08:39:48;;;;;;;18.02;2.10;;;;;;;4.57;100.00;99311.97;4957905;29;20047;-80
2021/12/08 08:42:19;;;;;;;5.55;1.02;;;;;;;4.55;100.00;99313.97;4965185;28;20050;-79
2021/12/08 08:45:01;;;;;;;13.75;1.63;;;;;;;4.60;100.00;99315.31;4974130;28;20042;-80
2021/12/08 08:48:01;;;;;;;11.88;1.58;;;;;;;4.63;100.00;99307.94;4952633;29;20038;-79
2021/12/08 08:50:35;;;;;;;12.27;2.90;;;;;;;4.68;100.00;99320.13;4956842;28;20048;-79
2021/12/08 08:53:01;;;;;;;15.05;2.50;;;;;;;4.67;100.00;99314.81;4956656;28;20043;-79
2021/12/08 08:55:36;;;;;;;20.25;2.33;;;;;;;4.68;100.00;99319.28;4971386;28;20047;-79
2021/12/08 08:58:07;;;;;;;12.93;1.70;;;;;;;4.55;100.00;99317.53;4957401;29;20432;-80
2021/12/08 09:00:57;;;;;;;9.23;1.40;;;;;;;4.51;100.00;99312.47;4947102;29;20062;-79
2021/12/08 09:03:26;;;;;;;9.93;1.30;;;;;;;4.53;100.00;99318.66;4960895;29;20035;-80
2021/12/08 09:06:03;;;;;;;9.27;1.50;;;;;;;4.60;100.00;99323.44;4964239;28;20035;-80
2021/12/08 09:08:30;;;;;;;15.02;1.70;;;;;;;4.59;100.00;99321.72;4952011;29;20514;-80
2021/12/08 09:11:16;;;;;;;8.35;1.90;;;;;;;4.58;100.00;99311.00;4942226;29;20027;-79
2021/12/08 09:13:49;;;;;;;6.45;1.15;;;;;;;4.57;100.00;99302.00;4962596;28;20067;-80
2021/12/08 09:16:24;;;;;;;12.43;1.40;;;;;;;4.63;100.00;99322.34;4969910;28;20035;-81
2021/12/08 09:19:22;;;;;;;11.43;1.83;;;;;;;4.69;100.00;99329.13;4946570;28;20074;-81
2021/12/08 09:21:59;;;;;;;9.68;1.02;;;;;;;4.70;100.00;99322.72;4953435;28;20043;-81
2021/12/08 09:24:44;;;;;;;8.70;0.98;;;;;;;4.73;100.00;99327.91;4967165;28;20443;-81
2021/12/08 09:27:14;;;;;;;10.10;1.70;;;;;;;4.79;100.00;99328.28;4978062;28;20034;-80
2021/12/08 09:29:54;;;;;;;12.02;1.45;;;;;;;4.80;100.00;99312.84;4964556;28;20051;-81
2021/12/08 09:32:35;;;;;;;6.65;1.40;;;;;;;4.90;100.00;99319.28;4952092;29;20134;-80
2021/12/08 09:35:10;;;;;;;7.68;1.30;;;;;;;4.92;100.00;99311.88;4961529;29;20050;-80
2021/12/08 09:37:41;;;;;;;6.53;1.10;;;;;;;5.06;100.00;99315.31;4963878;28;20093;-79
2021/12/08 09:40:15;;;;;;;13.18;2.13;;;;;;;5.13;100.00;99308.41;4965723;28;20393;-81
2021/12/08 09:42:46;;;;;;;8.95;1.27;;;;;;;5.17;100.00;99311.75;4964541;28;20035;-81
2021/12/08 09:45:14;;;;;;;9.02;1.70;;;;;;;5.24;100.00;99323.81;4966743;29;20121;-81
2021/12/08 09:47:40;;;;;;;10.73;1.30;;;;;;;5.15;100.00;99315.44;4944468;29;20483;-81
2021/12/08 09:50:10;;;;;;;5.80;0.95;;;;;;;5.19;100.00;99321.47;4974639;28;20035;-80
2021/12/08 09:52:36;;;;;;;8.90;1.63;;;;;;;5.21;100.00;99324.06;4967275;28;20027;-81
2021/12/08 09:55:03;;;;;;;11.75;2.15;;;;;;;5.23;100.00;99322.06;4976395;28;20244;-80
2021/12/08 09:57:30;;;;;;;9.25;2.20;;;;;;;5.22;100.00;99321.22;4977691;28;20035;-81
2021/12/08 09:59:56;;;;;;;8.60;1.20;;;;;;;5.28;100.00;99320.72;4962635;29;20045;-81
2021/12/08 10:02:29;;;;;;;9.18;1.42;;;;;;;5.37;100.00;99310.97;4963870;28;20078;-80
2021/12/08 10:04:57;;;;;;;7.80;1.70;;;;;;;5.40;100.00;99318.00;4963249;29;20479;-81
2021/12/08 10:07:24;;;;;;;10.52;2.25;;;;;;;5.45;100.00;99332.91;4968455;28;20058;-81
2021/12/08 10:09:49;;;;;;;6.43;1.23;;;;;;;5.43;100.00;99323.19;4962572;29;20035;-80
2021/12/08 10:12:16;;;;;;;6.88;1.48;;;;;;;5.40;100.00;99324.28;4960816;29;20027;-80
2021/12/08 10:14:46;;;;;;;11.35;1.52;;;;;;;5.37;100.00;99315.53;4960538;29;20042;-80
2021/12/08 10:17:14;;;;;;;8.68;1.80;;;;;;;5.32;100.00;99324.03;4958481;28;20046;-80
2021/12/08 10:19:41;;;;;;;12.10;1.35;;;;;;;5.33;100.00;99318.50;4952754;28;20689;-80
2021/12/08 10:22:21;;;;;;;7.28;1.30;;;;;;;5.33;100.00;99317.63;4960341;29;20034;-80
2021/12/08 10:25:15;;;;;;;4.50;1.23;;;;;;;5.32;100.00;99321.34;4958521;29;20035;-81
2021/12/08 10:28:11;;;;;;;6.93;1.42;;;;;;;5.43;100.00;99317.75;4939738;29;20028;-80
2021/12/08 10:30:53;;;;;;;12.00;1.40;;;;;;;5.52;100.00;99315.09;4970683;28;20077;-81
2021/12/08 10:33:52;;;;;;;13.57;1.55;;;;;;;5.52;100.00;99314.25;4955779;28;20040;-80
2021/12/08 10:36:50;;;;;;;5.60;1.45;;;;;;;5.76;100.00;99321.34;4942989;29;20211;-80
2021/12/08 10:39:46;;;;;;;5.38;1.02;;;;;;;5.91;100.00;99325.47;4941898;29;20035;-80
2021/12/08 10:42:23;;;;;;;6.68;1.17;;;;;;;5.81;100.00;99319.97;4971656;28;20059;-80
2021/12/08 10:45:06;;;;;;;5.35;1.02;;;;;;;5.84;100.00;99327.84;4969252;28;20046;-81
2021/12/08 10:47:49;;;;;;;9.40;1.15;;;;;;;5.65;100.00;99328.53;4949048;29;20078;-80
2021/12/08 10:56:04;;;;;;;7.18;1.90;;;;;;;6.17;100.00;99327.88;4960826;28;20063;-80
2021/12/08 10:58:32;;;;;;;7.00;1.10;;;;;;;6.16;100.00;99326.13;4958675;28;20476;-80
2021/12/08 11:01:06;;;;;;;10.43;1.17;;;;;;;6.20;100.00;99341.19;4958328;29;20035;-79
2021/12/08 11:03:32;;;;;;;8.07;1.45;;;;;;;6.13;100.00;99332.69;4973168;28;20094;-80
2021/12/08 11:06:04;;;;;;;10.63;1.20;;;;;;;6.10;100.00;99338.41;4957087;28;20047;-80
2021/12/08 11:08:33;;;;;;;5.13;1.38;;;;;;;5.88;100.00;99342.88;4958453;29;20085;-81
2021/12/08 11:11:06;;;;;;;12.68;2.15;;;;;;;6.11;100.00;99339.25;4959333;28;20039;-80
2021/12/08 11:13:44;;;;;;;6.93;1.17;;;;;;;6.05;100.00;99335.19;4960568;29;20039;-80
2021/12/08 11:16:14;;;;;;;8.80;1.65;;;;;;;5.94;100.00;99333.38;4959099;29;20031;-79
2021/12/08 11:18:46;;;;;;;5.50;0.93;;;;;;;5.94;100.00;99341.53;4950157;29;20039;-79
2021/12/08 11:21:27;;;;;;;11.98;1.55;;;;;;;5.92;100.00;99339.91;4958948;29;20031;-80
2021/12/08 11:23:56;;;;;;;6.10;1.25;;;;;;;5.99;100.00;99341.16;4943033;29;20043;-79
2021/12/08 11:26:29;;;;;;;4.40;1.10;;;;;;;5.98;100.00;99347.59;4971612;28;20043;-79
2021/12/08 11:29:14;;;;;;;10.75;1.50;;;;;;;6.09;100.00;99350.25;4961814;28;20124;-80
2021/12/08 11:31:43;;;;;;;8.77;1.58;;;;;;;6.13;100.00;99361.72;4947739;29;20031;-80
2021/12/08 11:34:22;;;;;;;5.40;0.98;;;;;;;5.89;100.00;99358.19;4954507;28;20042;-80
2021/12/08 11:36:53;;;;;;;7.40;1.45;;;;;;;5.91;100.00;99359.94;4961448;29;20059;-79
2021/12/08 11:39:26;;;;;;;5.93;1.00;;;;;;;5.88;100.00;99363.75;4951476;29;20078;-80
2021/12/08 11:41:55;;;;;;;3.30;1.00;;;;;;;5.82;100.00;99362.44;4933334;29;20070;-79
2021/12/08 11:44:25;;;;;;;11.10;2.17;;;;;;;5.91;100.00;99371.66;4973166;28;20391;-79
2021/12/08 11:46:57;;;;;;;7.82;1.50;;;;;;;5.97;100.00;99375.72;4958201;28;20460;-79
2021/12/08 11:49:24;;;;;;;7.60;1.73;;;;;;;6.01;100.00;99377.22;4956689;29;20194;-79
2021/12/08 11:51:54;;;;;;;13.48;1.80;;;;;;;5.98;100.00;99388.34;4954143;29;20036;-79
2021/12/08 11:54:29;;;;;;;3.22;1.20;;;;;;;5.99;100.00;99384.63;4953494;28;20043;-79
2021/12/08 11:57:11;;;;;;;6.88;1.30;;;;;;;5.99;100.00;99387.34;4957265;29;20053;-79
2021/12/08 11:59:59;;;;;;;8.77;2.10;;;;;;;5.93;100.00;99393.25;4942542;29;20035;-79
2021/12/08 12:02:58;;;;;;;4.63;1.20;;;;;;;5.96;100.00;99395.72;4943027;29;20034;-79
2021/12/08 12:05:30;;;;;;;5.40;0.98;;;;;;;5.89;100.00;99401.66;4947832;29;20079;-78
2021/12/08 12:07:56;;;;;;;6.25;1.10;;;;;;;5.87;100.00;99394.63;4958181;29;20032;-79
2021/12/08 12:10:25;;;;;;;7.63;1.35;;;;;;;5.85;100.00;99394.78;4958595;28;20032;-79
2021/12/08 12:12:51;;;;;;;6.03;1.20;;;;;;;5.82;100.00;99395.03;4943517;28;20058;-79
2021/12/08 12:15:19;;;;;;;8.63;1.20;;;;;;;5.81;100.00;99404.16;4959304;28;20057;-80
2021/12/08 12:17:47;;;;;;;5.05;1.40;;;;;;;5.95;100.00;99410.28;4951675;29;20031;-79
2021/12/08 12:20:24;;;;;;;4.00;0.93;;;;;;;5.94;100.00;99414.88;4945395;29;20019;-79
2021/12/08 12:23:27;;;;;;;11.80;1.40;;;;;;;5.92;100.00;99418.69;4965989;28;20058;-80
2021/12/08 12:26:29;;;;;;;5.38;1.38;;;;;;;5.92;100.00;99413.25;4974587;28;20027;-82
2021/12/08 12:29:24;;;;;;;5.95;1.00;;;;;;;5.94;100.00;99427.59;4967815;28;20042;-80
2021/12/08 12:32:17;;;;;;;3.15;0.80;;;;;;;5.85;100.00;99421.03;4952099;29;20051;-81
2021/12/08 12:34:43;;;;;;;6.03;1.02;;;;;;;5.87;100.00;99430.81;4958608;28;20427;-80
2021/12/08 12:37:14;;;;;;;3.22;1.00;;;;;;;5.93;100.00;99444.88;4961170;28;20035;-81